createdAt,value
2022-08-07T00:01:12.476Z,15.27
2022-08-07T00:03:49.884Z,13.73
2022-08-07T00:06:16.268Z,15.05
2022-08-07T00:08:44.219Z,14.20
2022-08-07T00:11:10.979Z,13.38
2022-08-07T00:13:44.668Z,12.65
2022-08-07T00:16:11.712Z,13.90
2022-08-07T00:18:43.803Z,13.93
2022-08-07T00:21:55.589Z,13.63
2022-08-07T00:23:56.989Z,12.85
2022-08-07T00:26:49.519Z,12.77
2022-08-07T00:29:09.686Z,11.98
2022-08-07T00:31:42.196Z,10.88
2022-08-07T00:34:09.420Z,11.85
2022-08-07T00:36:36.530Z,10.68
2022-08-07T00:39:09.238Z,10.68
2022-08-07T00:41:53.471Z,9.63
2022-08-07T00:44:20.389Z,10.00
2022-08-07T00:46:47.401Z,8.35
2022-08-07T00:49:24.966Z,9.60
2022-08-07T00:52:00.133Z,8.90
2022-08-07T00:54:26.596Z,9.43
2022-08-07T00:56:53.320Z,8.60
2022-08-07T00:59:35.903Z,8.45
2022-08-07T01:02:03.367Z,9.65
2022-08-07T01:04:34.674Z,7.80
2022-08-07T01:07:06.500Z,7.88
2022-08-07T01:10:04.043Z,7.80
2022-08-07T01:12:29.069Z,8.40
2022-08-07T01:15:01.683Z,7.32
2022-08-07T01:17:30.902Z,6.68
2022-08-07T01:20:01.387Z,6.97
2022-08-07T01:22:29.206Z,6.32
2022-08-07T01:24:56.830Z,6.70
2022-08-07T01:27:23.342Z,6.88
2022-08-07T01:29:59.797Z,6.32
2022-08-07T01:32:27.527Z,7.50
2022-08-07T01:34:56.247Z,7.15
2022-08-07T01:37:24.407Z,6.82
2022-08-07T01:39:54.018Z,7.22
2022-08-07T01:42:37.586Z,7.07
2022-08-07T01:45:10.041Z,7.20
2022-08-07T01:48:19.710Z,6.85
2022-08-07T01:50:36.164Z,5.90
2022-08-07T01:53:08.849Z,6.88
2022-08-07T01:55:40.351Z,5.57
2022-08-07T01:58:27.689Z,6.20
2022-08-07T02:01:25.144Z,5.47
2022-08-07T02:03:50.328Z,5.85
2022-08-07T02:06:30.707Z,6.03
2022-08-07T02:09:01.655Z,6.38
2022-08-07T02:12:04.487Z,5.25
2022-08-07T02:14:40.452Z,6.18
2022-08-07T02:17:13.544Z,6.07
2022-08-07T02:20:06.781Z,5.22
2022-08-07T02:22:41.128Z,6.03
2022-08-07T02:25:13.911Z,6.60
2022-08-07T02:27:55.147Z,6.03
2022-08-07T02:30:21.825Z,6.20
2022-08-07T02:33:03.851Z,5.50
2022-08-07T02:36:29.163Z,5.65
2022-08-07T02:38:28.152Z,5.32
2022-08-07T02:41:00.565Z,4.60
2022-08-07T02:43:27.913Z,4.93
2022-08-07T02:45:58.394Z,5.05
2022-08-07T02:48:28.121Z,4.65
2022-08-07T02:50:57.096Z,4.65
2022-08-07T02:53:30.343Z,5.15
2022-08-07T02:56:03.115Z,4.75
2022-08-07T02:58:33.892Z,5.07
2022-08-07T03:01:02.192Z,5.18
2022-08-07T03:03:49.044Z,5.60
2022-08-07T03:06:32.713Z,5.15
2022-08-07T03:09:04.532Z,4.70
2022-08-07T03:11:38.844Z,5.10
2022-08-07T03:14:07.545Z,5.90
2022-08-07T03:16:34.681Z,5.43
2022-08-07T03:19:01.436Z,6.18
2022-08-07T03:21:29.085Z,5.57
2022-08-07T03:24:18.301Z,6.95
2022-08-07T03:26:51.222Z,6.35
2022-08-07T03:29:25.040Z,6.10
2022-08-07T03:31:54.259Z,6.35
2022-08-07T03:34:22.870Z,5.63
2022-08-07T03:36:58.007Z,5.95
2022-08-07T03:39:45.823Z,6.10
2022-08-07T03:42:12.349Z,6.45
2022-08-07T03:44:40.121Z,6.60
2022-08-07T03:47:13.624Z,6.20
2022-08-07T03:49:47.981Z,6.45
2022-08-07T03:52:27.946Z,6.38
2022-08-07T03:55:06.189Z,6.18
2022-08-07T03:58:35.449Z,6.88
2022-08-07T04:00:29.318Z,7.53
2022-08-07T04:02:56.967Z,6.38
2022-08-07T04:05:40.800Z,7.15
2022-08-07T04:08:16.045Z,7.20
2022-08-07T04:10:53.912Z,6.88
2022-08-07T04:14:10.267Z,7.80
2022-08-07T04:16:30.063Z,8.43
2022-08-07T04:19:03.776Z,7.95
2022-08-07T04:21:33.376Z,7.28
2022-08-07T04:24:07.535Z,9.07
2022-08-07T04:26:36.361Z,8.20
2022-08-07T04:29:03.309Z,8.63
2022-08-07T04:31:38.805Z,7.72
2022-08-07T04:34:17.435Z,7.20
2022-08-07T04:36:54.340Z,8.73
2022-08-07T04:39:25.826Z,9.32
2022-08-07T04:41:52.953Z,9.63
2022-08-07T04:44:19.655Z,6.68
2022-08-07T04:47:08.477Z,8.25
2022-08-07T04:49:58.079Z,8.00
2022-08-07T04:52:38.307Z,8.20
2022-08-07T04:58:13.686Z,7.20
2022-08-07T04:59:01.587Z,6.75
2022-08-07T05:01:39.772Z,7.43
2022-08-07T05:04:07.830Z,8.10
2022-08-07T05:06:53.182Z,6.45
2022-08-07T05:09:45.359Z,6.65
2022-08-07T05:12:27.415Z,6.82
2022-08-07T05:15:04.794Z,6.50
2022-08-07T05:17:53.024Z,6.18
2022-08-07T05:20:24.900Z,5.85
2022-08-07T05:23:04.139Z,5.40
2022-08-07T05:25:36.790Z,5.35
2022-08-07T05:28:23.042Z,5.25
2022-08-07T05:30:55.477Z,5.07
2022-08-07T05:33:23.707Z,5.15
2022-08-07T05:35:52.863Z,4.50
2022-08-07T05:39:01.077Z,5.57
2022-08-07T05:41:14.309Z,4.63
2022-08-07T05:44:08.369Z,4.55
2022-08-07T05:46:30.557Z,4.40
2022-08-07T05:48:59.701Z,4.25
2022-08-07T05:51:31.830Z,4.40
2022-08-07T05:54:12.382Z,4.20
2022-08-07T05:56:47.795Z,3.78
2022-08-07T05:59:18.778Z,3.83
2022-08-07T06:01:49.804Z,3.97
2022-08-07T06:04:19.593Z,4.20
2022-08-07T06:06:47.658Z,4.03
2022-08-07T06:09:23.455Z,3.92
2022-08-07T06:12:09.977Z,3.70
2022-08-07T06:14:39.485Z,3.60
2022-08-07T06:17:07.107Z,3.60
2022-08-07T06:19:47.796Z,3.80
2022-08-07T06:22:27.143Z,3.15
2022-08-07T06:25:05.125Z,3.70
2022-08-07T06:28:00.480Z,3.78
2022-08-07T06:30:31.837Z,2.78
2022-08-07T06:33:16.139Z,3.47
2022-08-07T06:35:48.037Z,3.00
2022-08-07T06:38:31.466Z,3.30
2022-08-07T06:40:59.310Z,3.05
2022-08-07T06:43:26.741Z,3.05
2022-08-07T06:46:12.149Z,2.50
2022-08-07T06:48:41.997Z,3.30
2022-08-07T06:51:31.354Z,2.88
2022-08-07T06:55:28.411Z,2.40
2022-08-07T06:56:53.753Z,2.60
2022-08-07T07:00:12.466Z,3.08
2022-08-07T07:02:48.524Z,2.65
2022-08-07T07:05:04.803Z,3.33
2022-08-07T07:07:59.183Z,3.35
2022-08-07T07:10:26.987Z,2.60
2022-08-07T07:12:55.677Z,3.15
2022-08-07T07:15:32.606Z,2.85
2022-08-07T07:18:43.088Z,2.17
2022-08-07T07:21:22.031Z,2.67
2022-08-07T07:24:09.661Z,2.70
2022-08-07T07:26:39.678Z,2.50
2022-08-07T07:29:56.317Z,2.20
2022-08-07T07:31:57.674Z,2.45
2022-08-07T07:34:30.902Z,2.50
2022-08-07T07:37:14.339Z,2.38
2022-08-07T07:39:52.245Z,2.05
2022-08-07T07:42:22.052Z,2.10
2022-08-07T07:44:57.462Z,2.10
2022-08-07T07:47:24.808Z,2.10
2022-08-07T07:50:34.692Z,2.17
2022-08-07T07:52:39.417Z,2.70
2022-08-07T07:55:07.649Z,2.10
2022-08-07T07:57:51.540Z,2.72
2022-08-07T08:00:29.063Z,2.50
2022-08-07T08:03:08.416Z,2.50
2022-08-07T08:05:50.438Z,2.40
2022-08-07T08:08:34.528Z,2.72
2022-08-07T08:11:03.946Z,2.60
2022-08-07T08:13:33.276Z,3.10
2022-08-07T08:16:12.642Z,2.33
2022-08-07T08:18:39.197Z,2.25
2022-08-07T08:21:07.547Z,2.47
2022-08-07T08:23:54.293Z,2.30
2022-08-07T08:26:39.679Z,2.30
2022-08-07T08:29:06.897Z,2.42
2022-08-07T08:32:17.042Z,2.50
2022-08-07T08:34:32.847Z,2.33
2022-08-07T08:36:59.994Z,2.28
2022-08-07T08:39:39.442Z,2.20
2022-08-07T08:42:28.757Z,2.47
2022-08-07T08:45:14.642Z,2.42
2022-08-07T08:48:00.533Z,2.28
2022-08-07T08:50:39.712Z,2.20
2022-08-07T08:53:19.151Z,1.83
2022-08-07T08:55:58.556Z,2.00
2022-08-07T08:58:28.779Z,2.05
2022-08-07T09:00:59.625Z,1.80
2022-08-07T09:03:49.877Z,2.15
2022-08-07T09:06:21.567Z,2.10
2022-08-07T09:08:57.791Z,1.92
2022-08-07T09:11:50.862Z,2.20
2022-08-07T09:14:24.258Z,2.20
2022-08-07T09:17:05.363Z,2.20
2022-08-07T09:19:57.943Z,2.38
2022-08-07T09:24:33.847Z,2.03
2022-08-07T09:25:32.087Z,2.15
2022-08-07T09:28:03.081Z,1.95
2022-08-07T09:30:36.789Z,2.10
2022-08-07T09:33:16.848Z,2.03
2022-08-07T09:36:05.963Z,2.10
2022-08-07T09:38:54.024Z,1.77
2022-08-07T09:41:20.453Z,2.25
2022-08-07T09:44:06.868Z,2.03
2022-08-07T09:47:50.854Z,2.25
2022-08-07T09:50:02.105Z,2.00
2022-08-07T09:52:42.352Z,1.95
2022-08-07T09:55:29.335Z,1.60
2022-08-07T09:58:12.514Z,1.83
2022-08-07T10:00:57.449Z,1.75
2022-08-07T10:04:06.407Z,2.17
2022-08-07T10:06:41.707Z,1.90
2022-08-07T10:09:59.184Z,1.95
2022-08-07T10:12:31.691Z,1.90
2022-08-07T10:15:18.904Z,1.70
2022-08-07T10:18:01.539Z,2.00
2022-08-07T10:20:50.324Z,1.80
2022-08-07T10:24:06.443Z,1.85
2022-08-07T10:26:35.342Z,1.65
2022-08-07T10:29:01.730Z,2.05
2022-08-07T10:31:45.333Z,1.70
2022-08-07T10:34:37.233Z,2.05
2022-08-07T10:37:13.169Z,1.58
2022-08-07T10:40:02.640Z,1.95
2022-08-07T10:42:38.483Z,1.90
2022-08-07T10:45:19.527Z,1.83
2022-08-07T10:48:23.832Z,1.95
2022-08-07T10:50:55.599Z,1.67
2022-08-07T10:53:27.786Z,2.00
2022-08-07T10:56:31.761Z,1.60
2022-08-07T10:59:07.247Z,2.05
2022-08-07T11:02:05.096Z,2.10
2022-08-07T11:04:57.952Z,2.03
2022-08-07T11:07:58.784Z,1.95
2022-08-07T11:10:43.583Z,1.90
2022-08-07T11:14:42.545Z,2.15
2022-08-07T11:16:15.691Z,2.30
2022-08-07T11:18:51.831Z,2.00
2022-08-07T11:21:20.965Z,2.08
2022-08-07T11:24:01.748Z,1.77
2022-08-07T11:26:38.620Z,1.80
2022-08-07T11:29:41.791Z,1.83
2022-08-07T11:32:09.824Z,1.67
2022-08-07T11:34:42.565Z,1.80
2022-08-07T11:37:11.985Z,1.88
2022-08-07T11:40:03.453Z,1.70
2022-08-07T11:42:37.019Z,1.73
2022-08-07T11:45:13.045Z,1.80
2022-08-07T11:47:59.381Z,2.15
2022-08-07T11:50:34.956Z,1.85
2022-08-07T11:53:05.266Z,1.70
2022-08-07T11:56:25.959Z,1.90
2022-08-07T11:58:51.473Z,1.90
2022-08-07T12:02:00.705Z,1.90
2022-08-07T12:04:21.487Z,1.75
2022-08-07T12:07:03.918Z,1.50
2022-08-07T12:09:50.383Z,1.60
2022-08-07T12:12:25.293Z,1.60
2022-08-07T12:14:56.284Z,1.65
2022-08-07T12:17:39.457Z,1.77
2022-08-07T12:20:20.785Z,2.10
2022-08-07T12:22:58.796Z,1.75
2022-08-07T12:26:05.413Z,1.80
2022-08-07T12:28:52.823Z,2.00
2022-08-07T12:31:52.816Z,1.90
2022-08-07T12:34:22.933Z,2.00
2022-08-07T12:36:53.779Z,1.88
2022-08-07T12:39:42.374Z,2.25
2022-08-07T12:42:08.883Z,999.90
2022-08-07T12:44:39.762Z,756.50
2022-08-07T12:47:14.073Z,999.90
2022-08-07T12:49:51.347Z,31.52
2022-08-07T12:52:34.288Z,11.82
2022-08-07T12:55:05.369Z,69.22
2022-08-07T12:57:39.290Z,36.78
2022-08-07T13:00:32.580Z,18.77
2022-08-07T13:03:06.806Z,17.58
2022-08-07T13:06:04.820Z,65.82
2022-08-07T13:08:34.716Z,27.42
2022-08-07T13:11:16.145Z,1.80
2022-08-07T13:13:58.139Z,95.13
2022-08-07T13:16:50.705Z,53.42
2022-08-07T13:19:46.152Z,10.40
2022-08-07T13:22:26.909Z,108.43
2022-08-07T13:25:00.065Z,3.25
2022-08-07T13:28:05.847Z,18.98
2022-08-07T13:30:19.430Z,3.63
2022-08-07T13:34:31.646Z,43.92
2022-08-07T13:36:05.208Z,86.30
2022-08-07T13:38:42.035Z,78.28
2022-08-07T13:41:27.865Z,109.82
2022-08-07T13:43:56.481Z,573.28
2022-08-07T13:46:33.046Z,42.35
2022-08-07T13:49:00.490Z,106.07
2022-08-07T13:52:22.353Z,293.02
2022-08-07T13:54:23.504Z,64.90
2022-08-07T13:56:55.835Z,42.85
2022-08-07T13:59:25.658Z,757.00
2022-08-07T14:02:03.778Z,999.90
2022-08-07T14:04:35.455Z,999.90
2022-08-07T14:07:05.870Z,999.90
2022-08-07T14:10:15.632Z,999.90
2022-08-07T14:12:30.949Z,999.90
2022-08-07T14:15:04.507Z,999.90
2022-08-07T14:18:23.522Z,999.90
2022-08-07T14:20:42.284Z,999.90
2022-08-07T14:23:31.674Z,999.90
2022-08-07T14:26:05.519Z,999.90
2022-08-07T14:28:57.467Z,999.90
2022-08-07T14:31:23.870Z,999.90
2022-08-07T14:33:51.605Z,999.90
2022-08-07T14:36:18.796Z,999.90
2022-08-07T14:38:50.453Z,999.90
2022-08-07T14:41:34.198Z,999.90
2022-08-07T14:44:15.601Z,999.90
2022-08-07T14:52:19.306Z,999.90
2022-08-07T14:54:48.885Z,999.90
2022-08-07T14:57:23.735Z,999.90
2022-08-07T15:00:03.370Z,999.90
2022-08-07T15:02:34.546Z,999.90
2022-08-07T15:05:02.382Z,999.90
2022-08-07T15:10:20.189Z,999.90
2022-08-07T15:12:58.079Z,999.90
2022-08-07T15:15:26.110Z,999.90
2022-08-07T15:17:55.902Z,999.90
2022-08-07T15:20:33.999Z,999.90
2022-08-07T15:23:20.724Z,999.90
2022-08-07T15:25:50.972Z,999.90
2022-08-07T15:31:09.332Z,999.90
2022-08-07T15:33:38.421Z,999.90
2022-08-07T15:36:09.431Z,999.90
2022-08-07T15:44:13.043Z,999.90
2022-08-07T15:46:51.629Z,999.90
2022-08-07T15:50:04.859Z,999.90
2022-08-07T15:52:20.804Z,999.90
2022-08-07T15:54:48.380Z,999.90
2022-08-07T15:57:39.378Z,999.90
2022-08-07T16:00:06.934Z,999.90
2022-08-07T16:02:38.208Z,999.90
2022-08-07T16:05:15.093Z,999.90
2022-08-07T16:08:32.990Z,999.90
2022-08-07T16:10:41.856Z,999.90
2022-08-07T16:13:57.556Z,999.90
2022-08-07T16:16:06.894Z,999.90
2022-08-07T16:19:09.588Z,999.90
2022-08-07T16:22:01.640Z,999.90
2022-08-07T16:24:33.887Z,999.90
2022-08-07T16:27:04.494Z,999.90
2022-08-07T16:30:11.303Z,999.90
2022-08-07T16:32:37.095Z,999.90
2022-08-07T16:35:56.636Z,999.90
2022-08-07T16:38:17.653Z,999.90
2022-08-07T16:41:02.343Z,999.90
2022-08-07T16:44:06.099Z,999.90
2022-08-07T16:47:04.768Z,999.90
2022-08-07T16:50:28.673Z,999.90
2022-08-07T16:52:49.288Z,999.90
2022-08-07T16:55:26.859Z,999.90
2022-08-07T16:58:19.063Z,999.90
2022-08-07T17:00:51.491Z,999.90
2022-08-07T17:03:58.092Z,999.90
2022-08-07T17:06:33.097Z,999.90
2022-08-07T17:10:07.791Z,999.90
2022-08-07T17:12:35.605Z,999.90
2022-08-07T17:15:16.024Z,999.90
2022-08-07T17:17:47.351Z,999.90
2022-08-07T17:20:31.788Z,999.90
2022-08-07T17:23:14.700Z,999.90
2022-08-07T17:25:52.282Z,999.90
2022-08-07T17:28:31.525Z,999.90
2022-08-07T17:31:16.517Z,999.90
2022-08-07T17:34:15.274Z,999.90
2022-08-07T17:36:58.107Z,999.90
2022-08-07T17:39:58.278Z,999.90
2022-08-07T17:42:33.116Z,999.90
2022-08-07T17:45:01.575Z,999.90
2022-08-07T17:47:38.104Z,999.90
2022-08-07T17:50:19.881Z,999.90
2022-08-07T17:52:49.496Z,999.90
2022-08-07T17:56:00.022Z,999.90
2022-08-07T17:58:30.718Z,999.90
2022-08-07T18:00:59.129Z,999.90
2022-08-07T18:04:03.912Z,999.90
2022-08-07T18:06:38.478Z,999.90
2022-08-07T18:09:06.337Z,999.90
2022-08-07T18:12:17.545Z,999.90
2022-08-07T18:14:46.117Z,999.90
2022-08-07T18:18:44.740Z,999.90
2022-08-07T18:21:07.326Z,999.90
2022-08-07T18:23:46.732Z,999.90
2022-08-07T18:26:19.917Z,999.90
2022-08-07T18:28:58.570Z,999.90
2022-08-07T18:31:38.889Z,999.90
2022-08-07T18:34:35.851Z,999.90
2022-08-07T18:38:54.814Z,999.90
2022-08-07T18:40:42.238Z,999.90
2022-08-07T18:43:12.180Z,999.90
2022-08-07T18:46:21.928Z,999.90
2022-08-07T18:50:19.429Z,999.90
2022-08-07T18:52:52.574Z,999.90
2022-08-07T18:55:41.822Z,999.90
2022-08-07T18:58:18.257Z,999.90
2022-08-07T19:00:56.575Z,999.90
2022-08-07T19:03:37.876Z,999.90
2022-08-07T19:06:08.912Z,999.90
2022-08-07T19:08:46.367Z,999.90
2022-08-07T19:11:36.210Z,999.90
2022-08-07T19:14:11.658Z,999.90
2022-08-07T19:17:07.956Z,999.90
2022-08-07T19:19:55.655Z,999.90
2022-08-07T19:22:27.067Z,999.90
2022-08-07T19:24:56.872Z,999.90
2022-08-07T19:28:58.489Z,999.90
2022-08-07T19:31:06.200Z,999.90
2022-08-07T19:33:01.533Z,999.90
2022-08-07T19:35:37.669Z,999.90
2022-08-07T19:38:16.891Z,999.90
2022-08-07T19:40:50.461Z,999.90
2022-08-07T19:43:43.428Z,999.90
2022-08-07T19:46:14.531Z,999.90
2022-08-07T19:48:44.174Z,999.90
2022-08-07T19:51:20.172Z,999.90
2022-08-07T19:54:31.668Z,999.90
2022-08-07T19:57:51.656Z,999.90
2022-08-07T19:59:40.947Z,999.90
2022-08-07T20:02:15.263Z,999.90
2022-08-07T20:04:49.243Z,999.90
2022-08-07T20:07:23.899Z,999.90
2022-08-07T20:10:35.307Z,999.90
2022-08-07T20:12:51.182Z,999.90
2022-08-07T20:15:22.391Z,999.90
2022-08-07T20:18:01.402Z,999.90
2022-08-07T20:20:30.614Z,999.90
2022-08-07T20:22:59.967Z,999.90
2022-08-07T20:25:28.938Z,999.90
2022-08-07T20:27:58.435Z,999.90
2022-08-07T20:30:32.532Z,999.90
2022-08-07T20:32:59.828Z,999.90
2022-08-07T20:35:34.212Z,999.90
2022-08-07T20:38:04.089Z,999.90
2022-08-07T20:40:34.352Z,999.90
2022-08-07T20:43:02.789Z,999.90
2022-08-07T20:46:29.182Z,999.90
2022-08-07T20:48:28.750Z,999.90
2022-08-07T20:50:58.486Z,999.90
2022-08-07T20:53:26.003Z,999.90
2022-08-07T20:56:11.504Z,999.90
2022-08-07T20:58:38.711Z,999.90
2022-08-07T21:01:19.890Z,999.90
2022-08-07T21:04:13.381Z,999.90
2022-08-07T21:06:42.426Z,999.90
2022-08-07T21:09:15.126Z,999.90
2022-08-07T21:11:51.482Z,999.90
2022-08-07T21:14:32.797Z,999.90
2022-08-07T21:18:00.677Z,999.90
2022-08-07T21:19:51.358Z,999.90
2022-08-07T21:22:28.352Z,999.90
2022-08-07T21:24:58.111Z,999.90
2022-08-07T21:27:27.463Z,999.90
2022-08-07T21:30:11.869Z,999.90
2022-08-07T21:32:59.129Z,999.90
2022-08-07T21:35:34.601Z,999.90
2022-08-07T21:38:21.527Z,999.90
2022-08-07T21:40:59.340Z,999.90
2022-08-07T21:43:55.619Z,999.90
2022-08-07T21:46:32.388Z,999.90
2022-08-07T21:49:14.574Z,999.90
2022-08-07T21:51:55.648Z,999.90
2022-08-07T21:54:27.405Z,999.90
2022-08-07T21:57:10.971Z,999.90
2022-08-07T22:00:05.099Z,999.90
2022-08-07T22:02:44.548Z,999.90
2022-08-07T22:05:43.844Z,999.90
2022-08-07T22:08:05.057Z,999.90
2022-08-07T22:10:35.418Z,999.90
2022-08-07T22:13:05.748Z,999.90
2022-08-07T22:16:43.462Z,999.90
2022-08-07T22:18:40.926Z,999.90
2022-08-07T22:21:19.308Z,999.90
2022-08-07T22:24:00.983Z,999.90
2022-08-07T22:26:42.507Z,999.90
2022-08-07T22:29:13.950Z,999.90
2022-08-07T22:32:00.338Z,999.90
2022-08-07T22:34:49.761Z,999.90
2022-08-07T22:38:04.390Z,999.90
2022-08-07T22:40:24.780Z,999.90
2022-08-07T22:42:52.858Z,999.90
2022-08-07T22:46:21.378Z,999.90
2022-08-07T22:48:55.217Z,999.90
2022-08-07T22:51:36.345Z,999.90
2022-08-07T22:54:22.274Z,999.90
2022-08-07T22:57:02.009Z,999.90
2022-08-07T22:59:43.454Z,999.90
2022-08-07T23:02:24.539Z,999.90
2022-08-07T23:06:10.125Z,999.90
2022-08-07T23:07:56.326Z,999.90
2022-08-07T23:10:42.306Z,999.90
2022-08-07T23:13:14.889Z,999.90
2022-08-07T23:16:05.363Z,999.90
2022-08-07T23:18:34.918Z,999.90
2022-08-07T23:21:16.346Z,999.90
2022-08-07T23:24:04.973Z,999.90
2022-08-07T23:26:55.118Z,999.90
2022-08-07T23:30:35.288Z,999.90
2022-08-07T23:34:21.642Z,999.90
2022-08-07T23:35:13.524Z,999.90
2022-08-07T23:38:04.055Z,999.90
2022-08-07T23:40:47.037Z,999.90
2022-08-07T23:43:38.128Z,999.90
2022-08-07T23:46:24.026Z,999.90
2022-08-07T23:49:19.097Z,999.90
2022-08-07T23:53:01.917Z,999.90
2022-08-07T23:54:44.126Z,999.90
2022-08-07T23:57:19.469Z,999.90
